Time;durP1;ratioP1;P1;durP2;ratioP2;P2;SDS_P1;SDS_P2;PMS_P1;PMS_P2;Temp;Humidity;BMP_temperature;BMP_pressure;BME280_temperature;BME280_humidity;BME280_pressure;Samples;Min_cycle;Max_cycle;Signal;HPM_P1;HPM_P2
2023/09/03 00:02:37;;;;;;;0.10;0.10;;;;;;;18.83;100.00;99856.72;5092123;28;20198;-55
2023/09/03 00:05:24;;;;;;;0.10;0.10;;;;;;;18.70;100.00;99855.22;5092484;28;20195;-55
2023/09/03 00:08:13;;;;;;;0.10;0.10;;;;;;;18.68;100.00;99854.50;5092346;28;20202;-55
2023/09/03 00:11:00;;;;;;;0.00;0.00;;;;;;;18.48;100.00;99859.72;5091023;28;20187;-55
2023/09/03 00:13:47;;;;;;;0.10;0.10;;;;;;;18.31;100.00;99853.09;5092390;28;20195;-55
2023/09/03 00:16:34;;;;;;;0.10;0.10;;;;;;;18.20;100.00;99845.13;5092141;28;20213;-55
2023/09/03 00:19:21;;;;;;;0.10;0.10;;;;;;;18.07;100.00;99844.47;5092115;28;20202;-55
2023/09/03 00:22:08;;;;;;;0.10;0.10;;;;;;;18.03;100.00;99851.03;5092255;28;20198;-55
2023/09/03 00:24:56;;;;;;;0.10;0.10;;;;;;;17.96;100.00;99845.38;5090910;28;20284;-55
2023/09/03 00:27:43;;;;;;;0.10;0.10;;;;;;;17.94;100.00;99852.66;5092319;28;20187;-55
2023/09/03 00:30:30;;;;;;;0.10;0.10;;;;;;;18.02;100.00;99857.38;5092645;28;20195;-54
2023/09/03 00:33:17;;;;;;;0.10;0.10;;;;;;;18.03;100.00;99859.09;5091177;28;20236;-54
2023/09/03 00:36:06;;;;;;;0.10;0.10;;;;;;;18.03;100.00;99851.03;5092081;28;20281;-55
2023/09/03 00:38:53;;;;;;;0.10;0.10;;;;;;;18.08;100.00;99859.56;5091911;28;20226;-55
2023/09/03 00:41:41;;;;;;;0.10;0.10;;;;;;;18.11;100.00;99855.78;5091152;28;20198;-55
2023/09/03 00:44:28;;;;;;;0.10;0.10;;;;;;;18.08;100.00;99853.34;5090978;28;20218;-55
2023/09/03 00:47:15;;;;;;;0.10;0.10;;;;;;;18.04;100.00;99852.75;5091933;28;20237;-55
2023/09/03 00:50:03;;;;;;;0.10;0.10;;;;;;;18.04;100.00;99852.75;5094858;28;20198;-55
2023/09/03 00:52:50;;;;;;;0.10;0.10;;;;;;;18.19;100.00;99864.88;5095759;28;20198;-55
2023/09/03 00:55:38;;;;;;;0.10;0.10;;;;;;;18.19;100.00;99864.88;5094228;28;20261;-55
2023/09/03 00:58:27;;;;;;;0.10;0.10;;;;;;;18.06;100.00;99847.28;5095561;28;20190;-55
2023/09/03 01:01:15;;;;;;;0.10;0.10;;;;;;;17.96;100.00;99845.38;5095505;28;20721;-55
2023/09/03 01:04:02;;;;;;;0.10;0.10;;;;;;;17.96;100.00;99844.50;5094541;28;20199;-55
2023/09/03 01:06:52;;;;;;;0.10;0.10;;;;;;;17.98;100.00;99846.09;5095536;28;20199;-54
2023/09/03 01:09:40;;;;;;;0.10;0.10;;;;;;;17.98;100.00;99856.81;5094127;28;20195;-55
2023/09/03 01:12:36;;;;;;;0.10;0.10;;;;;;;18.09;100.00;99866.63;5094239;28;20194;-54
2023/09/03 01:15:31;;;;;;;0.10;0.10;;;;;;;18.20;100.00;99869.25;5095096;28;20679;-55
2023/09/03 01:18:21;;;;;;;0.10;0.10;;;;;;;18.17;100.00;99868.66;5095113;28;20256;-55
2023/09/03 01:21:49;;;;;;;0.10;0.10;;;;;;;18.21;100.00;99864.72;5095335;28;20191;-55
2023/09/03 01:25:00;;;;;;;0.10;0.10;;;;;;;18.09;100.00;99866.63;5093786;28;20194;-55
2023/09/03 01:27:58;;;;;;;0.00;0.00;;;;;;;17.99;100.00;99871.06;5095145;28;20195;-54
2023/09/03 01:30:47;;;;;;;0.10;0.10;;;;;;;17.91;100.00;99871.69;5094137;28;20222;-55
2023/09/03 01:33:37;;;;;;;0.10;0.10;;;;;;;17.93;100.00;99875.09;5095044;28;20327;-55
2023/09/03 01:36:24;;;;;;;0.10;0.10;;;;;;;17.88;100.00;99879.16;5094580;28;20207;-55
2023/09/03 01:39:11;;;;;;;0.10;0.10;;;;;;;17.95;100.00;99886.56;5093215;28;20230;-55
2023/09/03 01:41:58;;;;;;;0.10;0.10;;;;;;;17.74;100.00;99893.66;5094753;28;20305;-54
2023/09/03 01:44:45;;;;;;;0.10;0.10;;;;;;;17.75;100.00;99898.03;5094625;28;20237;-54
2023/09/03 01:47:41;;;;;;;0.10;0.10;;;;;;;17.82;100.00;99907.28;5093586;28;20190;-54
2023/09/03 01:50:33;;;;;;;0.10;0.10;;;;;;;17.82;100.00;99907.28;5094645;28;20194;-54
2023/09/03 01:53:27;;;;;;;0.10;0.10;;;;;;;17.78;100.00;99919.25;5094627;28;20230;-54
2023/09/03 01:56:15;;;;;;;0.10;0.10;;;;;;;17.88;100.00;99914.00;5092012;28;20221;-54
2023/09/03 01:59:12;;;;;;;0.10;0.10;;;;;;;17.78;100.00;99910.38;5093579;28;20215;-54
2023/09/03 02:02:00;;;;;;;0.10;0.10;;;;;;;17.68;100.00;99900.34;5094322;28;20737;-55
2023/09/03 02:04:49;;;;;;;0.10;0.10;;;;;;;17.56;100.00;99901.34;5094363;28;20213;-54
2023/09/03 02:07:36;;;;;;;0.10;0.10;;;;;;;17.54;100.00;99902.44;5094181;28;20186;-54
2023/09/03 02:10:23;;;;;;;0.10;0.10;;;;;;;17.56;100.00;99911.19;5092982;28;20263;-54
2023/09/03 02:13:10;;;;;;;0.10;0.10;;;;;;;17.77;100.00;99911.34;5093317;28;20437;-54
2023/09/03 02:15:59;;;;;;;0.10;0.10;;;;;;;17.59;100.00;99909.16;5092813;28;20236;-54
2023/09/03 02:18:46;;;;;;;0.10;0.10;;;;;;;17.46;100.00;99908.41;5094164;28;20231;-54
2023/09/03 02:21:34;;;;;;;0.10;0.10;;;;;;;17.41;100.00;99900.75;5093907;28;20713;-55
2023/09/03 02:24:21;;;;;;;0.10;0.10;;;;;;;17.46;100.00;99901.22;5092398;28;20194;-54
2023/09/03 02:27:08;;;;;;;0.10;0.10;;;;;;;17.52;100.00;99905.25;5093863;28;20187;-54
2023/09/03 02:29:55;;;;;;;0.10;0.10;;;;;;;17.46;100.00;99911.09;5092876;28;20202;-55
2023/09/03 02:32:41;;;;;;;0.10;0.10;;;;;;;17.47;100.00;99915.50;5093553;28;20198;-54
2023/09/03 02:35:30;;;;;;;0.10;0.10;;;;;;;17.43;100.00;99919.38;5092613;28;20202;-54
2023/09/03 02:38:19;;;;;;;0.10;0.10;;;;;;;-144.59;100.00;63158.22;5092325;28;20721;-54
2023/09/03 02:41:06;;;;;;;0.10;0.10;;;;;;;17.34;100.00;99936.19;5092217;28;20206;-54
2023/09/03 02:43:53;;;;;;;0.10;0.10;;;;;;;17.27;100.00;99940.31;5093597;28;20211;-54
2023/09/03 02:46:40;;;;;;;0.10;0.10;;;;;;;17.33;100.00;99937.16;5093545;28;20252;-54
2023/09/03 02:49:26;;;;;;;0.10;0.10;;;;;;;17.37;100.00;99944.84;5093503;28;20194;-54
2023/09/03 02:52:13;;;;;;;0.10;0.10;;;;;;;17.52;100.00;99932.03;5092317;28;20194;-55
2023/09/03 02:55:01;;;;;;;0.10;0.10;;;;;;;17.44;100.00;99938.00;5092023;28;20203;-54
2023/09/03 02:57:48;;;;;;;0.10;0.10;;;;;;;17.40;100.00;99928.53;5092028;28;20273;-54
2023/09/03 03:00:35;;;;;;;0.10;0.10;;;;;;;17.37;100.00;99925.22;5092346;28;20275;-54
2023/09/03 03:03:22;;;;;;;0.10;0.10;;;;;;;17.24;100.00;99922.69;5092185;28;20199;-54
2023/09/03 03:06:10;;;;;;;0.10;0.10;;;;;;;-144.59;100.00;75358.25;5092112;28;20195;-54
2023/09/03 03:08:57;;;;;;;0.10;0.10;;;;;;;17.28;100.00;99937.53;5091300;28;20198;-54
2023/09/03 03:11:46;;;;;;;0.10;0.10;;;;;;;17.38;100.00;99940.34;5091243;28;20202;-54
2023/09/03 03:14:33;;;;;;;0.10;0.10;;;;;;;17.31;100.00;99949.81;5092213;28;20199;-54
2023/09/03 03:17:20;;;;;;;0.10;0.10;;;;;;;17.48;100.00;99953.84;5091728;28;20234;-54
2023/09/03 03:20:09;;;;;;;0.10;0.10;;;;;;;17.40;100.00;99960.66;5092867;28;20198;-54
2023/09/03 03:22:57;;;;;;;0.10;0.10;;;;;;;17.27;100.00;99959.91;5092796;28;20199;-54
2023/09/03 03:25:43;;;;;;;0.10;0.10;;;;;;;17.43;100.00;99971.13;5091734;28;20203;-54
2023/09/03 03:28:33;;;;;;;0.00;0.00;;;;;;;17.46;100.00;99973.53;5091877;28;20194;-54
2023/09/03 03:31:21;;;;;;;0.10;0.10;;;;;;;17.41;100.00;99978.44;5091597;28;20206;-54
2023/09/03 03:34:10;;;;;;;0.10;0.10;;;;;;;17.46;100.00;99978.06;5091882;28;20187;-54
2023/09/03 03:36:58;;;;;;;0.10;0.10;;;;;;;17.39;100.00;99968.81;5091817;28;20252;-55
2023/09/03 03:39:49;;;;;;;0.10;0.10;;;;;;;17.32;100.00;99962.25;5090528;28;20194;-54
2023/09/03 03:42:38;;;;;;;0.10;0.10;;;;;;;17.24;100.00;99965.50;5091592;28;20187;-54
2023/09/03 03:45:27;;;;;;;0.10;0.10;;;;;;;17.16;100.00;99967.94;5091446;28;20209;-54
2023/09/03 03:48:14;;;;;;;0.10;0.10;;;;;;;17.20;100.00;99960.53;5091628;28;20195;-54
2023/09/03 03:51:01;;;;;;;0.10;0.10;;;;;;;17.19;100.00;99956.16;5092607;28;20207;-54
2023/09/03 03:53:49;;;;;;;0.10;0.10;;;;;;;17.28;100.00;99947.41;5091325;28;20355;-54
2023/09/03 03:56:37;;;;;;;0.10;0.10;;;;;;;17.15;100.00;99947.50;5091577;28;20198;-54
2023/09/03 03:59:24;;;;;;;0.10;0.10;;;;;;;17.08;100.00;99932.88;5090924;28;20317;-54
2023/09/03 04:02:12;;;;;;;0.10;0.10;;;;;;;16.96;100.00;99924.00;5092345;28;20186;-54
2023/09/03 04:04:59;;;;;;;0.10;0.10;;;;;;;16.94;100.00;99933.97;5091387;28;20191;-54
2023/09/03 04:07:46;;;;;;;0.10;0.10;;;;;;;16.84;100.00;99941.88;5092521;28;20194;-54
2023/09/03 04:10:33;;;;;;;0.10;0.10;;;;;;;16.75;100.00;99957.78;5090091;28;20242;-54
2023/09/03 04:13:20;;;;;;;0.00;0.00;;;;;;;16.65;100.00;99962.94;5092368;28;20187;-54
2023/09/03 04:16:09;;;;;;;0.10;0.10;;;;;;;16.73;100.00;99957.91;5092336;28;20211;-54
2023/09/03 04:18:57;;;;;;;0.10;0.10;;;;;;;16.68;100.00;99954.69;5091019;28;20230;-55
2023/09/03 04:21:44;;;;;;;0.10;0.10;;;;;;;16.69;100.00;99950.22;5091245;28;20246;-54
2023/09/03 04:24:31;;;;;;;0.10;0.10;;;;;;;16.54;100.00;99947.72;5094435;28;20670;-54
2023/09/03 04:27:18;;;;;;;0.10;0.10;;;;;;;16.50;100.00;99956.94;5095956;28;20310;-54
2023/09/03 04:30:06;;;;;;;0.10;0.10;;;;;;;16.54;100.00;99974.47;5095247;28;20202;-54
2023/09/03 04:32:53;;;;;;;0.10;0.10;;;;;;;16.56;100.00;99974.34;5094952;28;20222;-54
2023/09/03 04:35:42;;;;;;;0.10;0.10;;;;;;;16.72;100.00;99987.44;5094821;28;20199;-54
2023/09/03 04:38:29;;;;;;;0.10;0.10;;;;;;;16.73;100.00;99990.00;5094706;28;20253;-54
2023/09/03 04:41:16;;;;;;;0.10;0.10;;;;;;;16.99;100.00;99996.03;5094846;28;20199;-54
2023/09/03 04:44:11;;;;;;;0.10;0.10;;;;;;;17.01;100.00;100003.94;5094593;28;20191;-55
2023/09/03 04:47:02;;;;;;;0.10;0.10;;;;;;;16.88;100.00;100009.38;5094758;28;20198;-54
2023/09/03 04:49:49;;;;;;;0.10;0.10;;;;;;;16.86;100.00;100009.50;5095739;28;20182;-54
2023/09/03 04:52:42;;;;;;;0.10;0.10;;;;;;;16.90;100.00;100019.97;5094874;28;20213;-54
2023/09/03 04:55:32;;;;;;;0.10;0.10;;;;;;;16.74;100.00;100026.50;5093279;28;20262;-54
2023/09/03 04:58:19;;;;;;;0.10;0.10;;;;;;;16.54;100.00;100032.44;5095448;28;20226;-54
2023/09/03 05:01:14;;;;;;;0.10;0.10;;;;;;;16.66;100.00;100028.84;5094474;28;20199;-54
2023/09/03 05:04:03;;;;;;;0.10;0.10;;;;;;;16.46;100.00;100035.69;5094495;28;20301;-54
2023/09/03 05:06:51;;;;;;;0.10;0.10;;;;;;;16.44;100.00;100034.97;5094254;28;20262;-54
2023/09/03 05:09:41;;;;;;;0.10;0.10;;;;;;;16.62;100.00;100042.59;5093112;28;20225;-55
2023/09/03 05:12:28;;;;;;;0.10;0.10;;;;;;;16.60;100.00;100053.41;5095337;28;20273;-54
2023/09/03 05:15:15;;;;;;;0.10;0.10;;;;;;;16.62;100.00;100058.63;5094740;28;20198;-54
2023/09/03 05:18:02;;;;;;;0.10;0.10;;;;;;;16.67;100.00;100072.50;5093906;28;20313;-54
2023/09/03 05:20:50;;;;;;;0.10;0.10;;;;;;;16.66;100.00;100084.19;5094223;28;20718;-54
2023/09/03 05:23:37;;;;;;;0.10;0.10;;;;;;;16.87;100.00;100086.13;5095042;28;20198;-55
2023/09/03 05:26:27;;;;;;;0.10;0.10;;;;;;;17.17;100.00;100077.59;5094028;28;20233;-55
2023/09/03 05:29:14;;;;;;;0.10;0.10;;;;;;;17.08;100.00;100082.78;5094002;28;20195;-55
2023/09/03 05:32:02;;;;;;;0.10;0.10;;;;;;;17.22;100.00;100073.72;5093719;28;20191;-54
2023/09/03 05:34:48;;;;;;;0.10;0.10;;;;;;;17.22;100.00;100079.06;5093718;28;20207;-54
2023/09/03 05:37:36;;;;;;;0.10;0.10;;;;;;;17.30;100.00;100079.34;5093683;28;20293;-54
2023/09/03 05:40:23;;;;;;;0.10;0.10;;;;;;;17.48;100.00;100080.59;5092291;28;20186;-54
2023/09/03 05:43:12;;;;;;;0.10;0.10;;;;;;;17.57;100.00;100082.56;5094696;28;20265;-55
2023/09/03 05:46:00;;;;;;;0.10;0.10;;;;;;;17.76;100.00;100081.13;5094992;28;20195;-54
2023/09/03 05:48:50;;;;;;;0.00;0.00;;;;;;;17.86;100.00;100090.16;5093123;28;20257;-54
2023/09/03 05:51:37;;;;;;;0.10;0.10;;;;;;;18.09;100.00;100102.59;5093171;28;20187;-55
2023/09/03 05:54:26;;;;;;;0.10;0.10;;;;;;;17.82;100.00;100096.72;5092386;28;20190;-55
2023/09/03 05:57:12;;;;;;;0.10;0.10;;;;;;;17.88;100.00;100110.50;5093229;28;20778;-55
2023/09/03 06:00:01;;;;;;;0.10;0.10;;;;;;;17.99;100.00;100106.97;5094100;28;20218;-54
2023/09/03 06:02:48;;;;;;;0.10;0.10;;;;;;;18.07;100.00;100111.75;5093262;28;20206;-54
2023/09/03 06:05:37;;;;;;;0.10;0.10;;;;;;;18.20;100.00;100112.44;5093251;28;20233;-54
2023/09/03 06:08:24;;;;;;;0.10;0.10;;;;;;;17.99;100.00;100106.97;5094012;28;20190;-55
2023/09/03 06:11:11;;;;;;;0.10;0.10;;;;;;;18.18;100.00;100117.94;5092950;28;20191;-54
2023/09/03 06:13:58;;;;;;;0.10;0.10;;;;;;;18.07;100.00;100123.31;5094009;28;20190;-55
2023/09/03 06:16:46;;;;;;;0.10;0.10;;;;;;;18.01;100.00;100129.16;5094116;28;20233;-54
2023/09/03 06:19:33;;;;;;;0.00;0.00;;;;;;;18.09;100.00;100140.13;5093930;28;20589;-54
2023/09/03 06:22:20;;;;;;;0.10;0.10;;;;;;;18.07;100.00;100135.88;5093981;28;20679;-55
2023/09/03 06:25:08;;;;;;;0.10;0.10;;;;;;;18.10;100.00;100132.94;5092667;28;20670;-54
2023/09/03 06:27:55;;;;;;;0.10;0.10;;;;;;;18.18;100.00;100144.75;5093875;28;20199;-54
2023/09/03 06:30:42;;;;;;;0.10;0.10;;;;;;;18.12;100.00;100141.69;5093895;28;20532;-55
2023/09/03 06:33:30;;;;;;;0.00;0.00;;;;;;;18.23;100.00;100158.63;5093985;28;20482;-55
2023/09/03 06:36:17;;;;;;;0.10;0.10;;;;;;;18.16;100.00;100151.22;5093838;28;20194;-54
2023/09/03 06:39:04;;;;;;;0.10;0.10;;;;;;;18.28;100.00;100169.00;5091863;28;20312;-55
2023/09/03 06:41:51;;;;;;;0.10;0.10;;;;;;;18.13;100.00;100173.75;5093467;28;20232;-54
2023/09/03 06:44:38;;;;;;;0.00;0.00;;;;;;;18.39;100.00;100174.38;5093612;28;20199;-54
2023/09/03 06:47:25;;;;;;;0.10;0.10;;;;;;;18.31;100.00;100180.34;5093355;28;20337;-54
2023/09/03 06:50:14;;;;;;;0.00;0.00;;;;;;;-144.59;100.00;100180.47;5093500;28;20285;-54
2023/09/03 06:53:01;;;;;;;0.10;0.10;;;;;;;18.51;100.00;100186.78;5093519;28;20203;-55
2023/09/03 06:55:48;;;;;;;0.10;0.10;;;;;;;18.65;100.00;100176.81;5092239;28;20245;-54
2023/09/03 06:58:35;;;;;;;0.10;0.10;;;;;;;18.69;100.00;100176.44;5093210;28;20236;-55
2023/09/03 07:01:22;;;;;;;0.10;0.10;;;;;;;18.53;100.00;100178.66;5093411;28;20198;-54
2023/09/03 07:04:09;;;;;;;0.10;0.10;;;;;;;18.66;100.00;100191.94;5093227;28;20206;-55
2023/09/03 07:06:57;;;;;;;0.10;0.10;;;;;;;18.81;100.00;100185.31;5093234;28;20203;-55
2023/09/03 07:09:49;;;;;;;0.10;0.10;;;;;;;18.61;100.00;100184.22;5092002;28;20195;-54
2023/09/03 07:12:36;;;;;;;0.00;0.00;;;;;;;18.68;100.00;100192.66;5093018;28;20317;-54
2023/09/03 07:15:24;;;;;;;0.10;0.10;;;;;;;18.88;100.00;100205.31;5093175;28;20195;-54
2023/09/03 07:18:11;;;;;;;0.10;0.10;;;;;;;19.08;100.00;100209.91;5092915;28;20203;-54
2023/09/03 07:21:04;;;;;;;0.10;0.10;;;;;;;19.25;100.00;100204.97;5092554;28;20214;-54
2023/09/03 07:23:56;;;;;;;0.10;0.10;;;;;;;19.59;100.00;100201.19;5091583;28;20195;-55
2023/09/03 07:26:43;;;;;;;0.10;0.10;;;;;;;19.81;100.00;100196.69;5092761;28;20257;-54
2023/09/03 07:29:30;;;;;;;0.10;0.10;;;;;;;20.16;100.00;100198.97;5092629;28;20206;-55
2023/09/03 07:32:17;;;;;;;0.10;0.10;;;;;;;20.37;100.00;100183.66;5092783;28;20191;-54
2023/09/03 07:35:05;;;;;;;0.00;0.00;;;;;;;20.25;100.00;100182.03;5092620;28;20651;-55
2023/09/03 07:37:52;;;;;;;0.10;0.10;;;;;;;20.65;100.00;100183.91;5090980;28;20253;-55
2023/09/03 07:40:40;;;;;;;0.00;0.00;;;;;;;20.57;100.00;100184.63;5089964;28;20221;-55
2023/09/03 07:43:27;;;;;;;0.10;0.10;;;;;;;20.48;100.00;100171.97;5091392;28;20337;-55
2023/09/03 07:46:14;;;;;;;0.10;0.10;;;;;;;20.58;100.00;100186.31;5092575;28;20276;-54
2023/09/03 07:49:02;;;;;;;0.00;0.00;;;;;;;20.52;100.00;100174.25;5092607;28;20284;-55
2023/09/03 07:51:48;;;;;;;0.00;0.00;;;;;;;20.55;100.00;100183.88;5092446;28;20276;-54
2023/09/03 07:54:35;;;;;;;0.00;0.00;;;;;;;21.08;100.00;100178.19;5091454;28;20198;-55
2023/09/03 07:57:24;;;;;;;0.10;0.10;;;;;;;21.14;100.00;100185.72;5093474;28;20190;-55
2023/09/03 08:00:13;;;;;;;0.10;0.10;;;;;;;21.28;100.00;100179.09;5099007;28;20270;-54
2023/09/03 08:03:02;;;;;;;0.00;0.00;;;;;;;21.60;100.00;100166.16;5099361;28;20231;-55
2023/09/03 08:05:49;;;;;;;0.10;0.10;;;;;;;22.06;100.00;100163.63;5099295;28;20198;-55
2023/09/03 08:08:38;;;;;;;0.10;0.10;;;;;;;22.24;100.00;100157.34;5099034;28;20304;-55
2023/09/03 08:11:25;;;;;;;0.00;0.00;;;;;;;22.73;100.00;100149.00;5099174;28;20194;-55
2023/09/03 08:14:13;;;;;;;0.10;0.10;;;;;;;22.37;100.00;100145.34;5099135;28;20393;-55
2023/09/03 08:17:00;;;;;;;0.10;0.10;;;;;;;22.07;100.00;100150.03;5098576;28;20203;-55
2023/09/03 08:19:48;;;;;;;0.10;0.10;;;;;;;22.77;100.00;100164.75;5098898;28;20210;-55
2023/09/03 08:22:36;;;;;;;0.00;0.00;;;;;;;22.81;100.00;100173.41;5099110;28;20191;-55
2023/09/03 08:25:23;;;;;;;0.10;0.10;;;;;;;22.54;100.00;100168.88;5097534;28;20202;-55
2023/09/03 08:28:11;;;;;;;0.10;0.10;;;;;;;22.41;100.00;100162.97;5098870;28;20214;-55
2023/09/03 08:30:59;;;;;;;0.10;0.10;;;;;;;22.87;100.00;100166.56;5098863;28;20190;-55
2023/09/03 08:33:46;;;;;;;0.10;0.10;;;;;;;22.95;100.00;100163.94;5098840;28;20249;-55
2023/09/03 08:36:32;;;;;;;0.10;0.10;;;;;;;22.62;100.00;100165.44;5098009;28;20674;-55
2023/09/03 08:39:19;;;;;;;0.10;0.10;;;;;;;22.78;100.00;100165.63;5095863;28;20284;-55
2023/09/03 08:42:07;;;;;;;0.10;0.10;;;;;;;23.05;100.00;100159.31;5098619;28;20197;-55
2023/09/03 08:45:02;;;;;;;0.10;0.10;;;;;;;23.16;100.00;100158.25;5098664;28;20206;-55
2023/09/03 08:47:51;;;;;;;0.10;0.10;;;;;;;23.73;100.00;100162.31;5098780;28;20313;-55
2023/09/03 08:50:38;;;;;;;0.00;0.00;;;;;;;23.91;100.00;100175.81;5098750;28;20257;-55
2023/09/03 08:53:24;;;;;;;0.10;0.10;;;;;;;24.33;100.00;100178.66;5098108;28;20214;-55
2023/09/03 08:56:12;;;;;;;0.10;0.10;;;;;;;24.50;100.00;100176.84;5096564;28;20194;-55
2023/09/03 08:58:59;;;;;;;0.10;0.10;;;;;;;24.72;100.00;100175.41;5097126;28;20187;-55
2023/09/03 09:01:49;;;;;;;0.10;0.10;;;;;;;23.98;100.00;100175.00;5098517;28;20221;-55
2023/09/03 09:04:37;;;;;;;0.10;0.10;;;;;;;24.38;100.00;100173.56;5098489;28;20764;-55
2023/09/03 09:07:25;;;;;;;0.05;0.05;;;;;;;24.06;100.00;100173.38;5098639;28;20237;-55
2023/09/03 09:10:14;;;;;;;0.10;0.10;;;;;;;24.38;100.00;100170.03;5094945;28;20194;-55
2023/09/03 09:13:05;;;;;;;0.10;0.10;;;;;;;24.30;100.00;100165.38;5094144;28;20188;-55
2023/09/03 09:15:52;;;;;;;0.10;0.10;;;;;;;24.30;100.00;100165.38;5093749;28;20269;-55
2023/09/03 09:18:42;;;;;;;0.10;0.10;;;;;;;25.24;100.00;100161.66;5094311;28;20326;-56
2023/09/03 09:21:32;;;;;;;0.10;0.10;;;;;;;25.45;100.00;100169.28;5094868;28;20214;-55
2023/09/03 09:24:19;;;;;;;0.03;0.03;;;;;;;25.51;100.00;100155.91;5093995;28;20199;-55
2023/09/03 09:27:14;;;;;;;0.00;0.00;;;;;;;25.83;100.00;100148.78;5095123;28;20190;-55
2023/09/03 09:30:09;;;;;;;0.00;0.00;;;;;;;25.86;100.00;100152.00;5094983;28;20199;-55
2023/09/03 09:33:04;;;;;;;0.00;0.00;;;;;;;25.75;100.00;100157.78;5095183;28;20305;-56
2023/09/03 09:35:51;;;;;;;0.00;0.00;;;;;;;25.81;100.00;100151.66;5094938;28;20195;-55
2023/09/03 09:38:39;;;;;;;0.00;0.00;;;;;;;26.00;100.00;100161.31;5094679;28;20230;-55
2023/09/03 09:41:27;;;;;;;0.10;0.10;;;;;;;26.28;100.00;100158.19;5094677;28;20226;-55
2023/09/03 09:44:14;;;;;;;0.00;0.00;;;;;;;26.60;100.00;100157.22;5094892;28;20227;-55
2023/09/03 09:47:15;;;;;;;0.00;0.00;;;;;;;26.46;98.50;100156.13;5094725;28;20198;-55
2023/09/03 09:50:02;;;;;;;0.00;0.00;;;;;;;27.06;99.15;100150.88;5094764;28;20198;-55
2023/09/03 09:52:49;;;;;;;0.00;0.00;;;;;;;27.00;94.20;100154.28;5094535;28;20198;-55
2023/09/03 09:55:37;;;;;;;0.00;0.00;;;;;;;27.08;91.37;100158.84;5093451;28;20199;-55
2023/09/03 09:58:24;;;;;;;0.00;0.00;;;;;;;26.80;93.98;100164.75;5094547;28;20195;-55
2023/09/03 10:01:11;;;;;;;0.00;0.00;;;;;;;27.01;88.28;100166.00;5094102;28;20215;-55
2023/09/03 10:03:58;;;;;;;0.10;0.10;;;;;;;27.23;88.92;100159.78;5093675;28;20210;-55
2023/09/03 10:06:44;;;;;;;0.05;0.05;;;;;;;27.31;87.80;100162.44;5092961;28;20670;-55
2023/09/03 10:09:32;;;;;;;0.03;0.03;;;;;;;27.66;85.53;100155.53;5092680;28;20671;-56
2023/09/03 10:12:20;;;;;;;0.00;0.00;;;;;;;27.49;89.35;100155.81;5093604;28;20321;-56
2023/09/03 10:15:08;;;;;;;0.05;0.05;;;;;;;27.32;92.42;100158.69;5092947;28;20199;-55
2023/09/03 10:17:55;;;;;;;0.00;0.00;;;;;;;27.66;84.69;100157.41;5093389;28;20199;-55
2023/09/03 10:20:42;;;;;;;0.00;0.00;;;;;;;27.78;82.70;100160.53;5093502;28;20203;-55
2023/09/03 10:23:34;;;;;;;0.05;0.05;;;;;;;28.28;80.24;100162.59;5094001;28;20254;-55
2023/09/03 10:26:25;;;;;;;0.00;0.00;;;;;;;28.11;79.75;100158.31;5093927;28;20280;-55
2023/09/03 10:29:15;;;;;;;0.00;0.00;;;;;;;28.94;72.39;100160.72;5094104;28;20194;-55
2023/09/03 10:32:04;;;;;;;0.00;0.00;;;;;;;29.68;67.57;100148.66;5093913;28;20209;-56
2023/09/03 10:34:51;;;;;;;0.00;0.00;;;;;;;30.67;64.12;100154.78;5092966;28;20194;-56
2023/09/03 10:37:39;;;;;;;0.00;0.00;;;;;;;30.50;62.72;100157.03;5093554;28;20230;-56
2023/09/03 10:40:28;;;;;;;0.00;0.00;;;;;;;30.93;62.64;100154.88;5092435;28;20256;-55
2023/09/03 10:43:25;;;;;;;0.00;0.00;;;;;;;31.57;60.67;100148.09;5093467;28;20241;-56
2023/09/03 10:46:13;;;;;;;0.00;0.00;;;;;;;33.59;52.39;100156.06;5093299;28;20199;-56
2023/09/03 10:49:00;;;;;;;0.00;0.00;;;;;;;33.66;50.80;100164.22;5093475;28;20714;-56
2023/09/03 10:51:47;;;;;;;0.00;0.00;;;;;;;34.01;49.11;100161.84;5093210;28;20191;-56
2023/09/03 10:54:34;;;;;;;0.00;0.00;;;;;;;33.37;48.96;100169.31;5091941;28;20199;-56
2023/09/03 10:57:21;;;;;;;0.00;0.00;;;;;;;33.35;49.86;100163.16;5092934;28;20210;-56
2023/09/03 11:00:13;;;;;;;0.00;0.00;;;;;;;33.51;50.81;100176.41;5091534;28;20215;-56
2023/09/03 11:06:17;;;;;;;0.00;0.00;;;;;;;34.95;42.34;100161.41;5130308;27;20542;-58
2023/09/03 11:09:23;;;;;;;0.00;0.00;;;;;;;35.54;40.99;100156.94;5129293;28;20220;-55
2023/09/03 11:12:10;;;;;;;0.00;0.00;;;;;;;34.13;43.76;100160.00;5129988;27;20186;-55
2023/09/03 11:14:57;;;;;;;0.00;0.00;;;;;;;35.74;39.16;100150.25;5130658;28;20230;-54
2023/09/03 11:17:50;;;;;;;0.00;0.00;;;;;;;35.76;39.23;100148.91;5130784;28;20200;-56
2023/09/03 11:20:38;;;;;;;0.00;0.00;;;;;;;34.93;41.56;100149.75;5130595;28;20262;-56
2023/09/03 11:23:37;;;;;;;0.00;0.00;;;;;;;37.62;36.22;100154.19;5130299;27;20186;-56
2023/09/03 11:26:24;;;;;;;0.00;0.00;;;;;;;37.73;36.47;100155.19;5130745;27;20185;-56
2023/09/03 11:29:20;;;;;;;0.00;0.00;;;;;;;36.49;38.26;100141.25;5130105;27;20256;-56
2023/09/03 11:32:07;;;;;;;0.00;0.00;;;;;;;34.89;41.20;100147.72;5130533;27;20233;-56
2023/09/03 11:35:00;;;;;;;0.00;0.00;;;;;;;37.39;38.06;100141.38;5130188;27;20189;-56
2023/09/03 11:37:47;;;;;;;0.00;0.00;;;;;;;38.72;35.33;100140.63;5130105;27;20196;-56
2023/09/03 11:40:35;;;;;;;0.00;0.00;;;;;;;37.45;36.02;100137.63;5129093;27;20202;-56
2023/09/03 11:43:22;;;;;;;0.00;0.00;;;;;;;38.41;36.01;100133.81;5130241;27;20205;-56
2023/09/03 11:46:13;;;;;;;0.00;0.00;;;;;;;38.07;36.99;100134.75;5130153;27;20667;-56
2023/09/03 11:49:04;;;;;;;0.00;0.00;;;;;;;37.50;37.79;100137.69;5130444;27;20185;-56
2023/09/03 11:51:52;;;;;;;0.00;0.00;;;;;;;36.33;39.16;100129.00;5129958;27;20189;-56
2023/09/03 11:54:39;;;;;;;0.00;0.00;;;;;;;35.02;40.65;100138.41;5128739;27;20255;-56
2023/09/03 11:57:28;;;;;;;0.00;0.00;;;;;;;34.75;42.17;100130.53;5130225;28;20218;-56
2023/09/03 12:00:15;;;;;;;0.00;0.00;;;;;;;36.46;38.77;100123.22;5129825;27;20224;-56
2023/09/03 12:03:03;;;;;;;0.00;0.00;;;;;;;38.00;34.58;100128.53;5129905;27;20309;-56
2023/09/03 12:05:50;;;;;;;0.00;0.00;;;;;;;39.52;32.77;100131.47;5129689;27;20221;-56
2023/09/03 12:08:37;;;;;;;0.00;0.00;;;;;;;36.83;33.82;100139.47;5129923;28;20185;-56
2023/09/03 12:11:29;;;;;;;0.00;0.00;;;;;;;35.39;35.96;100130.88;5129999;27;20307;-56
2023/09/03 12:14:29;;;;;;;0.00;0.00;;;;;;;35.44;36.22;100128.28;5129218;27;20200;-56
2023/09/03 12:17:23;;;;;;;0.00;0.00;;;;;;;36.67;34.86;100114.31;5115530;28;20194;-56
2023/09/03 12:20:30;;;;;;;0.00;0.00;;;;;;;36.44;35.30;100119.88;5116049;28;20198;-56
2023/09/03 12:23:19;;;;;;;0.00;0.00;;;;;;;35.80;36.85;100116.19;5115809;28;20197;-56
2023/09/03 12:26:15;;;;;;;0.00;0.00;;;;;;;35.14;38.76;100123.63;5114076;28;20222;-56
2023/09/03 12:29:03;;;;;;;0.00;0.00;;;;;;;34.63;38.64;100121.34;5115427;28;20194;-56
2023/09/03 12:31:51;;;;;;;0.00;0.00;;;;;;;34.89;39.04;100122.94;5115762;28;20198;-56
2023/09/03 12:34:39;;;;;;;0.00;0.00;;;;;;;33.49;41.03;100120.84;5115487;28;20190;-56
2023/09/03 12:37:39;;;;;;;0.00;0.00;;;;;;;34.77;39.28;100116.53;5115739;28;20186;-56
2023/09/03 12:40:26;;;;;;;0.00;0.00;;;;;;;34.90;38.62;100111.69;5114171;28;20706;-56
2023/09/03 12:43:12;;;;;;;0.00;0.00;;;;;;;35.70;38.57;100116.78;5115508;28;20194;-56
2023/09/03 12:45:59;;;;;;;0.00;0.00;;;;;;;34.17;41.61;100113.66;5115031;28;20283;-56
2023/09/03 12:48:48;;;;;;;0.00;0.00;;;;;;;34.69;41.03;100120.44;5115017;28;20402;-56
2023/09/03 12:51:37;;;;;;;0.00;0.00;;;;;;;34.03;43.29;100122.03;5113776;28;20282;-56
2023/09/03 12:54:23;;;;;;;0.00;0.00;;;;;;;34.49;41.78;100128.09;5112233;28;20732;-56
2023/09/03 12:57:10;;;;;;;0.00;0.00;;;;;;;34.20;39.75;100127.78;5115080;28;20340;-55
2023/09/03 12:59:58;;;;;;;0.00;0.00;;;;;;;33.56;42.39;100123.50;5115277;28;20676;-56
2023/09/03 13:02:45;;;;;;;0.00;0.00;;;;;;;34.00;39.57;100118.91;5114875;28;20190;-56
2023/09/03 13:05:35;;;;;;;0.00;0.00;;;;;;;34.08;39.51;100121.34;5114633;28;20221;-56